createdAt,value
2023-05-12T00:02:01.244Z,3.30
2023-05-12T00:04:28.194Z,2.75
2023-05-12T00:06:55.027Z,2.60
2023-05-12T00:09:21.828Z,2.70
2023-05-12T00:11:49.532Z,2.50
2023-05-12T00:14:19.287Z,2.58
2023-05-12T00:20:04.825Z,2.53
2023-05-12T00:22:31.843Z,2.65
2023-05-12T00:25:18.599Z,2.90
2023-05-12T00:27:45.848Z,3.10
2023-05-12T00:30:13.331Z,3.30
2023-05-12T00:32:42.351Z,3.28
2023-05-12T00:35:10.369Z,3.60
2023-05-12T00:37:37.986Z,3.60
2023-05-12T00:40:05.740Z,3.72
2023-05-12T00:42:34.223Z,3.60
2023-05-12T00:45:01.701Z,3.65
2023-05-12T00:47:30.925Z,5.10
2023-05-12T00:49:57.948Z,3.78
2023-05-12T00:52:25.061Z,3.50
2023-05-12T00:54:51.990Z,3.75
2023-05-12T00:57:19.311Z,3.90
2023-05-12T00:59:46.677Z,4.05
2023-05-12T01:02:14.020Z,4.35
2023-05-12T01:04:41.632Z,4.05
2023-05-12T01:07:17.698Z,3.72
2023-05-12T01:09:45.583Z,4.05
2023-05-12T01:12:12.399Z,4.30
2023-05-12T01:14:39.760Z,4.50
2023-05-12T01:17:10.276Z,4.00
2023-05-12T01:19:49.302Z,4.20
2023-05-12T01:22:17.562Z,4.55
2023-05-12T01:24:52.553Z,4.28
2023-05-12T01:27:20.720Z,3.90
2023-05-12T01:29:48.533Z,4.25
2023-05-12T01:32:18.085Z,4.53
2023-05-12T01:34:45.208Z,4.47
2023-05-12T01:37:12.759Z,4.43
2023-05-12T01:39:40.488Z,4.68
2023-05-12T01:42:09.609Z,4.25
2023-05-12T01:44:36.594Z,4.57
2023-05-12T01:47:04.157Z,4.53
2023-05-12T01:49:33.174Z,4.63
2023-05-12T01:52:00.160Z,4.78
2023-05-12T01:54:30.893Z,4.10
2023-05-12T01:56:58.082Z,4.53
2023-05-12T01:59:25.485Z,4.40
2023-05-12T02:02:00.282Z,4.25
2023-05-12T02:04:33.079Z,4.22
2023-05-12T02:07:01.876Z,4.30
2023-05-12T02:09:33.498Z,4.03
2023-05-12T02:12:02.374Z,4.10
2023-05-12T02:14:31.698Z,3.92
2023-05-12T02:16:59.381Z,4.25
2023-05-12T02:19:26.361Z,4.55
2023-05-12T02:21:55.061Z,4.20
2023-05-12T02:24:21.858Z,4.53
2023-05-12T02:26:49.267Z,4.78
2023-05-12T02:29:19.697Z,3.90
2023-05-12T02:31:53.168Z,5.13
2023-05-12T02:34:20.311Z,4.47
2023-05-12T02:36:47.482Z,4.97
2023-05-12T02:39:14.625Z,4.55
2023-05-12T02:41:45.190Z,4.40
2023-05-12T02:44:12.312Z,4.63
2023-05-12T02:46:39.700Z,4.97
2023-05-12T02:49:08.791Z,5.10
2023-05-12T02:51:35.632Z,5.53
2023-05-12T02:54:02.480Z,6.20
2023-05-12T02:56:30.438Z,6.53
2023-05-12T02:58:58.341Z,6.32
2023-05-12T03:01:35.009Z,6.63
2023-05-12T03:04:02.073Z,5.85
2023-05-12T03:06:29.768Z,5.40
2023-05-12T03:08:56.609Z,5.28
2023-05-12T03:11:23.815Z,5.53
2023-05-12T03:13:54.589Z,4.55
2023-05-12T03:16:21.493Z,5.47
2023-05-12T03:18:49.205Z,5.15
2023-05-12T03:21:16.594Z,5.03
2023-05-12T03:23:43.393Z,4.40
2023-05-12T03:26:11.466Z,4.80
2023-05-12T03:28:38.711Z,5.05
2023-05-12T03:31:06.101Z,4.90
2023-05-12T03:33:34.892Z,5.70
2023-05-12T03:36:02.227Z,5.07
2023-05-12T03:38:29.088Z,4.60
2023-05-12T03:41:07.418Z,4.95
2023-05-12T03:43:36.067Z,4.60
2023-05-12T03:46:03.977Z,5.18
2023-05-12T03:48:31.229Z,4.78
2023-05-12T03:50:58.913Z,4.78
2023-05-12T03:53:25.848Z,4.32
2023-05-12T03:55:52.736Z,5.00
2023-05-12T03:58:19.666Z,4.53
2023-05-12T04:00:49.737Z,4.15
2023-05-12T04:03:17.102Z,4.28
2023-05-12T04:05:44.188Z,4.40
2023-05-12T04:08:11.238Z,4.07
2023-05-12T04:10:38.634Z,4.00
2023-05-12T04:13:05.479Z,4.68
2023-05-12T04:15:32.401Z,5.55
2023-05-12T04:17:59.405Z,5.00
2023-05-12T04:20:26.394Z,4.70
2023-05-12T04:22:53.410Z,5.25
2023-05-12T04:25:20.382Z,5.82
2023-05-12T04:27:47.701Z,7.18
2023-05-12T04:30:14.614Z,6.28
2023-05-12T04:32:43.295Z,7.90
2023-05-12T04:35:10.350Z,8.45
2023-05-12T04:37:37.422Z,8.43
2023-05-12T04:40:05.632Z,9.13
2023-05-12T04:42:32.535Z,9.68
2023-05-12T04:44:59.908Z,9.63
2023-05-12T04:47:27.184Z,10.00
2023-05-12T04:49:54.199Z,10.88
2023-05-12T04:52:24.010Z,10.60
2023-05-12T04:54:53.461Z,9.60
2023-05-12T04:57:20.554Z,10.23
2023-05-12T04:59:48.476Z,11.40
2023-05-12T05:02:16.317Z,10.98
2023-05-12T05:04:43.373Z,10.95
2023-05-12T05:07:10.432Z,11.27
2023-05-12T05:09:37.291Z,12.10
2023-05-12T05:12:05.585Z,12.57
2023-05-12T05:14:33.530Z,12.85
2023-05-12T05:17:00.580Z,12.02
2023-05-12T05:19:39.008Z,13.32
2023-05-12T05:22:14.513Z,12.80
2023-05-12T05:24:41.855Z,12.77
2023-05-12T05:27:09.062Z,12.95
2023-05-12T05:29:36.070Z,13.55
2023-05-12T05:32:03.087Z,12.85
2023-05-12T05:34:30.467Z,12.90
2023-05-12T05:36:57.716Z,12.10
2023-05-12T05:39:36.614Z,14.32
2023-05-12T05:42:03.627Z,14.95
2023-05-12T05:44:33.222Z,13.13
2023-05-12T05:47:03.281Z,14.25
2023-05-12T05:49:30.744Z,14.45
2023-05-12T05:51:59.723Z,14.30
2023-05-12T05:54:31.123Z,14.30
2023-05-12T05:57:02.142Z,14.32
2023-05-12T05:59:30.544Z,14.73
2023-05-12T06:01:58.926Z,14.07
2023-05-12T06:04:25.964Z,15.13
2023-05-12T06:06:53.273Z,13.60
2023-05-12T06:09:21.561Z,14.50
2023-05-12T06:11:52.611Z,15.27
2023-05-12T06:14:19.388Z,15.95
2023-05-12T06:16:54.838Z,16.10
2023-05-12T06:19:24.588Z,14.57
2023-05-12T06:21:52.903Z,17.10
2023-05-12T06:24:19.893Z,16.77
2023-05-12T06:26:46.895Z,17.63
2023-05-12T06:29:16.406Z,18.25
2023-05-12T06:32:14.914Z,16.65
2023-05-12T06:34:43.148Z,15.93
2023-05-12T06:37:10.293Z,17.70
2023-05-12T06:39:41.504Z,18.63
2023-05-12T06:42:08.554Z,18.15
2023-05-12T06:44:42.279Z,19.13
2023-05-12T06:47:19.516Z,18.95
2023-05-12T06:49:47.238Z,17.05
2023-05-12T06:52:17.338Z,18.20
2023-05-12T06:54:44.137Z,18.83
2023-05-12T06:57:10.906Z,18.45
2023-05-12T06:59:37.908Z,19.33
2023-05-12T07:02:04.773Z,19.25
2023-05-12T07:04:31.664Z,19.05
2023-05-12T07:06:58.628Z,19.10
2023-05-12T07:09:25.572Z,18.75
2023-05-12T07:11:53.124Z,18.42
2023-05-12T07:14:21.763Z,19.85
2023-05-12T07:16:52.564Z,18.77
2023-05-12T07:19:19.752Z,17.73
2023-05-12T07:21:46.638Z,18.02
2023-05-12T07:24:21.205Z,17.70
2023-05-12T07:26:48.406Z,17.42
2023-05-12T07:29:15.175Z,17.45
2023-05-12T07:31:50.691Z,16.73
2023-05-12T07:34:17.867Z,16.85
2023-05-12T07:36:44.917Z,16.45
2023-05-12T07:39:13.782Z,16.60
2023-05-12T07:41:44.006Z,16.35
2023-05-12T07:44:10.894Z,15.23
2023-05-12T07:46:37.745Z,16.15
2023-05-12T07:49:04.765Z,15.70
2023-05-12T07:51:31.572Z,16.00
2023-05-12T07:53:58.654Z,15.65
2023-05-12T07:56:29.422Z,15.02
2023-05-12T07:58:56.309Z,16.42
2023-05-12T08:01:26.928Z,15.10
2023-05-12T08:04:00.839Z,15.07
2023-05-12T08:06:28.328Z,14.68
2023-05-12T08:09:03.403Z,14.43
2023-05-12T08:11:33.195Z,14.07
2023-05-12T08:14:00.806Z,12.75
2023-05-12T08:16:34.425Z,13.93
2023-05-12T08:19:01.671Z,12.82
2023-05-12T08:21:29.089Z,12.30
2023-05-12T08:23:56.181Z,12.05
2023-05-12T08:26:23.023Z,11.07
2023-05-12T08:28:50.088Z,11.75
2023-05-12T08:31:17.015Z,10.73
2023-05-12T08:33:43.873Z,9.77
2023-05-12T08:36:11.467Z,8.63
2023-05-12T08:38:38.507Z,9.05
2023-05-12T08:41:09.605Z,8.25
2023-05-12T08:43:44.848Z,8.00
2023-05-12T08:46:12.601Z,8.35
2023-05-12T08:48:40.542Z,8.05
2023-05-12T08:51:13.066Z,9.38
2023-05-12T08:53:41.543Z,8.40
2023-05-12T08:58:42.430Z,9.70
2023-05-12T09:01:11.501Z,8.70
2023-05-12T09:03:42.288Z,8.82
2023-05-12T09:06:16.163Z,8.70
2023-05-12T09:08:43.921Z,8.30
2023-05-12T09:11:13.789Z,8.13
2023-05-12T09:13:50.341Z,7.05
2023-05-12T09:16:19.231Z,6.95
2023-05-12T09:18:53.550Z,6.43
2023-05-12T09:21:21.318Z,6.25
2023-05-12T09:24:05.993Z,5.95
2023-05-12T09:26:44.797Z,5.38
2023-05-12T09:29:20.782Z,5.95
2023-05-12T09:31:59.691Z,5.82
2023-05-12T09:34:28.984Z,5.50
2023-05-12T09:36:57.129Z,5.75
2023-05-12T09:39:26.812Z,5.65
2023-05-12T09:41:56.630Z,4.53
2023-05-12T09:44:24.170Z,4.20
2023-05-12T09:46:51.960Z,3.95
2023-05-12T09:49:20.729Z,3.75
2023-05-12T09:51:51.848Z,2.90
2023-05-12T09:54:38.531Z,3.00
2023-05-12T09:57:06.125Z,2.95
2023-05-12T09:59:35.412Z,3.58
2023-05-12T10:02:03.064Z,3.47
2023-05-12T10:04:32.715Z,3.40
2023-05-12T10:07:01.508Z,3.28
2023-05-12T10:09:32.001Z,3.47
2023-05-12T10:11:59.222Z,4.13
2023-05-12T10:14:27.937Z,4.40
2023-05-12T10:16:56.075Z,4.55
2023-05-12T10:19:23.818Z,4.43
2023-05-12T10:21:50.969Z,3.95
2023-05-12T10:24:18.017Z,4.15
2023-05-12T10:26:45.282Z,4.00
2023-05-12T10:29:12.574Z,4.25
2023-05-12T10:31:40.200Z,4.43
2023-05-12T10:34:16.484Z,4.43
2023-05-12T10:36:49.303Z,3.95
2023-05-12T10:39:16.705Z,4.05
2023-05-12T10:41:43.847Z,4.07
2023-05-12T10:44:11.019Z,3.13
2023-05-12T10:46:37.906Z,2.90
2023-05-12T10:49:12.946Z,2.70
2023-05-12T10:51:43.522Z,2.17
2023-05-12T10:54:11.814Z,2.35
2023-05-12T10:56:38.801Z,2.20
2023-05-12T10:59:10.337Z,2.10
2023-05-12T11:01:42.966Z,2.00
2023-05-12T11:04:16.000Z,2.42
2023-05-12T11:06:44.959Z,2.45
2023-05-12T11:09:13.370Z,2.33
2023-05-12T11:11:45.642Z,2.60
2023-05-12T11:14:12.998Z,2.90
2023-05-12T11:16:45.653Z,2.28
2023-05-12T11:19:14.049Z,2.42
2023-05-12T11:21:45.295Z,2.65
2023-05-12T11:24:13.271Z,2.42
2023-05-12T11:26:55.455Z,2.15
2023-05-12T11:29:22.368Z,2.30
2023-05-12T11:31:52.776Z,2.05
2023-05-12T11:34:24.534Z,2.22
2023-05-12T11:36:52.331Z,1.70
2023-05-12T11:39:21.030Z,2.15
2023-05-12T11:41:48.345Z,2.15
2023-05-12T11:44:16.470Z,2.38
2023-05-12T11:46:56.068Z,2.17
2023-05-12T11:49:23.282Z,2.28
2023-05-12T11:51:57.315Z,2.20
2023-05-12T11:54:25.050Z,2.58
2023-05-12T11:56:53.300Z,2.22
2023-05-12T11:59:32.340Z,2.30
2023-05-12T12:02:03.055Z,2.33
2023-05-12T12:04:34.263Z,2.17
2023-05-12T12:07:01.559Z,2.28
2023-05-12T12:09:43.599Z,2.10
2023-05-12T12:12:11.678Z,1.88
2023-05-12T12:14:38.818Z,1.98
2023-05-12T12:17:05.751Z,1.88
2023-05-12T12:19:32.664Z,2.10
2023-05-12T12:21:59.900Z,2.15
2023-05-12T12:24:28.736Z,2.10
2023-05-12T12:26:55.914Z,2.30
2023-05-12T12:29:24.788Z,2.50
2023-05-12T12:31:51.995Z,2.17
2023-05-12T12:34:19.394Z,2.22
2023-05-12T12:36:48.055Z,2.10
2023-05-12T12:39:16.741Z,2.80
2023-05-12T12:41:48.113Z,2.10
2023-05-12T12:44:15.264Z,1.88
2023-05-12T12:46:50.870Z,1.90
2023-05-12T12:49:18.877Z,1.67
2023-05-12T12:51:47.234Z,2.22
2023-05-12T12:54:15.125Z,1.98
2023-05-12T12:56:43.269Z,1.80
2023-05-12T12:59:10.266Z,1.73
2023-05-12T13:01:37.465Z,1.75
2023-05-12T13:04:04.984Z,2.03
2023-05-12T13:06:31.716Z,1.85
2023-05-12T13:08:58.535Z,1.83
2023-05-12T13:11:29.319Z,2.08
2023-05-12T13:13:56.106Z,1.90
2023-05-12T13:16:23.280Z,2.28
2023-05-12T13:18:50.416Z,1.98
2023-05-12T13:21:18.749Z,1.80
2023-05-12T13:23:45.792Z,2.17
2023-05-12T13:26:14.798Z,2.35
2023-05-12T13:28:41.517Z,1.92
2023-05-12T13:31:12.762Z,1.70
2023-05-12T13:33:39.755Z,2.30
2023-05-12T13:36:13.486Z,1.80
2023-05-12T13:38:40.674Z,1.80
2023-05-12T13:41:11.714Z,2.50
2023-05-12T13:43:38.878Z,2.13
2023-05-12T13:46:06.346Z,1.90
2023-05-12T13:48:33.218Z,2.05
2023-05-12T13:51:00.017Z,2.05
2023-05-12T13:53:27.024Z,2.40
2023-05-12T13:55:53.938Z,2.13
2023-05-12T13:58:20.770Z,2.13
2023-05-12T14:00:48.031Z,2.22
2023-05-12T14:03:14.875Z,2.35
2023-05-12T14:05:42.640Z,2.28
2023-05-12T14:08:09.655Z,2.75
2023-05-12T14:10:36.579Z,2.20
2023-05-12T14:13:03.571Z,2.05
2023-05-12T14:15:47.188Z,1.60
2023-05-12T14:18:15.923Z,1.90
2023-05-12T14:20:43.191Z,2.00
2023-05-12T14:23:09.977Z,2.55
2023-05-12T14:25:36.767Z,2.00
2023-05-12T14:28:03.781Z,2.20
2023-05-12T14:30:31.034Z,2.05
2023-05-12T14:32:58.115Z,2.22
2023-05-12T14:35:27.546Z,2.30
2023-05-12T14:37:54.973Z,2.70
2023-05-12T14:40:21.996Z,2.00
2023-05-12T14:42:49.035Z,2.10
2023-05-12T14:45:15.878Z,1.75
2023-05-12T14:47:43.763Z,1.90
2023-05-12T14:50:11.059Z,1.88
2023-05-12T14:52:40.880Z,2.08
2023-05-12T14:55:11.852Z,2.63
2023-05-12T14:57:39.655Z,2.00
2023-05-12T15:00:13.627Z,2.35
2023-05-12T15:02:42.132Z,5.13
2023-05-12T15:05:09.898Z,1.80
2023-05-12T15:07:36.726Z,1.80
2023-05-12T15:10:04.462Z,1.83
2023-05-12T15:12:31.784Z,2.20
2023-05-12T15:15:01.365Z,2.22
2023-05-12T15:17:28.523Z,2.40
2023-05-12T15:19:55.980Z,2.50
2023-05-12T15:22:22.916Z,2.35
2023-05-12T15:24:49.760Z,2.75
2023-05-12T15:27:18.871Z,2.47
2023-05-12T15:29:45.691Z,2.55
2023-05-12T15:32:14.162Z,2.30
2023-05-12T15:34:41.333Z,2.63
2023-05-12T15:37:08.185Z,2.45
2023-05-12T15:39:35.433Z,2.42
2023-05-12T15:42:02.307Z,2.53
2023-05-12T15:44:29.161Z,2.70
2023-05-12T15:46:56.855Z,2.40
2023-05-12T15:49:24.287Z,2.80
2023-05-12T15:51:51.094Z,3.08
2023-05-12T15:54:18.572Z,2.65
2023-05-12T15:56:46.464Z,2.65
2023-05-12T15:59:13.440Z,2.63
2023-05-12T16:01:41.813Z,2.80
2023-05-12T16:04:18.575Z,3.22
2023-05-12T16:06:46.005Z,3.00
2023-05-12T16:09:13.721Z,3.53
2023-05-12T16:11:46.377Z,3.05
2023-05-12T16:14:13.995Z,3.00
2023-05-12T16:16:48.848Z,3.30
2023-05-12T16:19:17.054Z,3.30
2023-05-12T16:21:47.048Z,3.10
2023-05-12T16:24:14.077Z,3.50
2023-05-12T16:26:43.151Z,3.28
2023-05-12T16:29:10.583Z,3.40
2023-05-12T16:31:37.906Z,3.22
2023-05-12T16:34:05.671Z,2.85
2023-05-12T16:36:32.688Z,3.50
2023-05-12T16:38:59.772Z,3.65
2023-05-12T16:41:30.895Z,3.58
2023-05-12T16:43:58.312Z,3.80
2023-05-12T16:46:25.997Z,3.15
2023-05-12T16:48:53.704Z,3.92
2023-05-12T16:51:21.130Z,3.65
2023-05-12T16:53:47.884Z,3.53
2023-05-12T16:56:15.114Z,5.20
2023-05-12T16:58:42.544Z,4.43
2023-05-12T17:01:09.942Z,4.45
2023-05-12T17:03:37.006Z,3.50
2023-05-12T17:06:04.121Z,4.45
2023-05-12T17:08:31.518Z,4.85
2023-05-12T17:10:58.643Z,5.07
2023-05-12T17:13:25.623Z,4.85
2023-05-12T17:15:53.012Z,5.43
2023-05-12T17:18:19.783Z,4.95
2023-05-12T17:20:46.690Z,5.15
2023-05-12T17:23:13.550Z,5.28
2023-05-12T17:25:40.601Z,5.30
2023-05-12T17:28:07.583Z,5.72
2023-05-12T17:30:34.589Z,5.10
2023-05-12T17:33:01.798Z,5.28
2023-05-12T17:35:28.986Z,5.15
2023-05-12T17:37:56.125Z,6.00
2023-05-12T17:40:23.351Z,5.53
2023-05-12T17:42:50.431Z,5.40
2023-05-12T17:45:18.272Z,5.97
2023-05-12T17:47:46.328Z,5.90
2023-05-12T17:50:16.742Z,5.57
2023-05-12T17:52:45.171Z,4.90
2023-05-12T17:55:12.436Z,4.65
2023-05-12T17:57:39.281Z,4.55
2023-05-12T18:00:10.489Z,4.90
2023-05-12T18:02:45.006Z,4.72
2023-05-12T18:05:12.463Z,5.05
2023-05-12T18:07:39.412Z,4.82
2023-05-12T18:10:07.373Z,5.20
2023-05-12T18:12:34.348Z,5.15
2023-05-12T18:15:01.655Z,4.80
2023-05-12T18:17:29.149Z,4.60
2023-05-12T18:19:56.067Z,4.47
2023-05-12T18:22:23.133Z,4.47
2023-05-12T18:24:50.892Z,4.97
2023-05-12T18:27:18.145Z,4.93
2023-05-12T18:29:45.132Z,5.28
2023-05-12T18:32:12.189Z,5.22
2023-05-12T18:34:39.278Z,5.88
2023-05-12T18:37:06.215Z,5.95
2023-05-12T18:39:36.215Z,5.90
2023-05-12T18:42:03.587Z,5.70
2023-05-12T18:44:30.847Z,6.13
2023-05-12T18:46:59.038Z,6.15
2023-05-12T18:49:25.850Z,5.85
2023-05-12T18:51:52.913Z,5.53
2023-05-12T18:54:19.894Z,6.30
2023-05-12T18:56:47.582Z,5.63
2023-05-12T18:59:14.563Z,5.20
2023-05-12T19:01:43.261Z,6.57
2023-05-12T19:04:11.682Z,6.93
2023-05-12T19:06:38.944Z,5.95
2023-05-12T19:09:06.475Z,7.43
2023-05-12T19:11:33.419Z,6.70
2023-05-12T19:14:01.107Z,6.60
2023-05-12T19:16:51.874Z,6.55
2023-05-12T19:19:22.378Z,7.15
2023-05-12T19:21:49.346Z,7.22
2023-05-12T19:24:16.571Z,7.15
2023-05-12T19:26:43.792Z,7.40
2023-05-12T19:29:12.136Z,6.63
2023-05-12T19:31:39.022Z,7.07
2023-05-12T19:34:16.469Z,6.90
2023-05-12T19:36:43.947Z,7.80
2023-05-12T19:39:11.176Z,7.38
2023-05-12T19:41:49.108Z,7.75
2023-05-12T19:44:16.110Z,7.22
2023-05-12T19:46:55.911Z,7.38
2023-05-12T19:49:23.895Z,7.57
2023-05-12T19:51:51.891Z,7.55
2023-05-12T19:54:18.805Z,7.85
2023-05-12T19:56:45.880Z,8.15
2023-05-12T19:59:13.000Z,8.10
2023-05-12T20:01:42.656Z,9.55
2023-05-12T20:04:11.330Z,8.57
2023-05-12T20:06:38.322Z,6.95
2023-05-12T20:09:07.917Z,7.65
2023-05-12T20:11:34.784Z,7.47
2023-05-12T20:14:01.695Z,8.48
2023-05-12T20:16:38.390Z,8.57
2023-05-12T20:19:05.956Z,7.88
2023-05-12T20:21:33.888Z,8.25
2023-05-12T20:24:04.004Z,8.82
2023-05-12T20:26:35.321Z,8.77
2023-05-12T20:29:02.425Z,9.35
2023-05-12T20:34:20.871Z,9.88
2023-05-12T20:36:47.879Z,9.68
2023-05-12T20:39:15.366Z,9.23
2023-05-12T20:41:48.895Z,10.32
2023-05-12T20:44:19.635Z,10.02
2023-05-12T20:46:56.324Z,9.93
2023-05-12T20:49:23.489Z,10.13
2023-05-12T20:51:50.334Z,10.40
2023-05-12T20:54:17.420Z,10.13
2023-05-12T20:56:44.473Z,11.98
2023-05-12T20:59:11.405Z,10.38
2023-05-12T21:01:39.633Z,11.93
2023-05-12T21:04:07.975Z,12.07
2023-05-12T21:06:35.874Z,12.20
2023-05-12T21:09:03.251Z,11.95
2023-05-12T21:11:30.388Z,12.13
2023-05-12T21:14:01.508Z,12.45
2023-05-12T21:16:31.666Z,11.73
2023-05-12T21:19:00.102Z,13.13
2023-05-12T21:21:29.797Z,12.85
2023-05-12T21:23:56.935Z,12.25
2023-05-12T21:26:23.895Z,13.23
2023-05-12T21:28:50.996Z,12.57
2023-05-12T21:31:18.086Z,13.50
2023-05-12T21:33:45.105Z,13.00
2023-05-12T21:36:14.028Z,13.40
2023-05-12T21:38:54.947Z,12.93
2023-05-12T21:41:22.535Z,13.40
2023-05-12T21:43:49.401Z,13.13
2023-05-12T21:46:16.467Z,12.90
2023-05-12T21:48:43.350Z,16.05
2023-05-12T21:51:12.968Z,13.80
2023-05-12T21:53:41.312Z,13.70
2023-05-12T21:56:10.743Z,13.73
2023-05-12T21:58:47.584Z,14.57
2023-05-12T22:01:14.933Z,12.98
2023-05-12T22:03:41.908Z,13.70
2023-05-12T22:06:08.996Z,13.35
2023-05-12T22:08:35.816Z,13.52
2023-05-12T22:11:11.425Z,13.45
2023-05-12T22:13:47.871Z,13.25
2023-05-12T22:16:15.037Z,13.77
2023-05-12T22:18:43.733Z,12.63
2023-05-12T22:21:11.626Z,12.75
2023-05-12T22:23:49.787Z,13.00
2023-05-12T22:26:16.720Z,11.48
2023-05-12T22:28:46.439Z,11.57
2023-05-12T22:31:14.072Z,11.60
2023-05-12T22:33:41.292Z,10.73
2023-05-12T22:36:09.504Z,11.43
2023-05-12T22:38:36.993Z,10.18
2023-05-12T22:41:11.056Z,10.50
2023-05-12T22:43:47.526Z,10.77
2023-05-12T22:46:14.549Z,10.50
2023-05-12T22:48:42.027Z,10.25
2023-05-12T22:51:10.970Z,11.40
2023-05-12T22:53:41.557Z,11.07
2023-05-12T22:56:09.418Z,10.98
2023-05-12T22:58:36.717Z,11.13
2023-05-12T23:01:11.901Z,11.00
2023-05-12T23:03:39.211Z,10.95
2023-05-12T23:06:06.344Z,10.27
2023-05-12T23:08:33.215Z,9.77
2023-05-12T23:11:00.033Z,10.18
2023-05-12T23:13:26.910Z,9.88
2023-05-12T23:15:53.727Z,9.77
2023-05-12T23:18:21.156Z,10.65
2023-05-12T23:20:47.877Z,10.15
2023-05-12T23:23:14.775Z,9.68
2023-05-12T23:25:42.926Z,9.65
2023-05-12T23:28:10.574Z,9.52
2023-05-12T23:30:37.363Z,8.90
2023-05-12T23:33:04.483Z,8.77
2023-05-12T23:35:31.480Z,9.68
2023-05-12T23:37:58.237Z,8.75
2023-05-12T23:40:25.004Z,8.68
2023-05-12T23:42:51.781Z,9.10
2023-05-12T23:45:18.582Z,8.82
2023-05-12T23:47:45.624Z,9.07
2023-05-12T23:50:12.945Z,8.98
2023-05-12T23:52:39.793Z,9.68
2023-05-12T23:55:07.016Z,8.80
2023-05-12T23:57:33.820Z,8.77
